Time;durP1;ratioP1;P1;durP2;ratioP2;P2;SDS_P1;SDS_P2;PMS_P1;PMS_P2;Temp;Humidity;BMP_temperature;BMP_pressure;BME280_temperature;BME280_humidity;BME280_pressure;Samples;Min_cycle;Max_cycle;Signal;HPM_P1;HPM_P2
2022/05/17 00:01:20;;;;;;;4.40;1.73;;;;;;;18.87;46.92;101040.59;7397146;19;20481;-67
2022/05/17 00:03:48;;;;;;;4.25;2.03;;;;;;;18.85;47.15;101037.97;7395547;19;20023;-67
2022/05/17 00:06:16;;;;;;;5.20;1.88;;;;;;;18.82;47.03;101038.16;7395413;19;20010;-67
2022/05/17 00:08:44;;;;;;;4.60;2.20;;;;;;;18.79;47.30;101042.75;7397170;19;20031;-66
2022/05/17 00:11:13;;;;;;;4.57;1.90;;;;;;;18.75;47.48;101041.22;7395439;19;20035;-68
2022/05/17 00:13:50;;;;;;;7.05;2.17;;;;;;;18.69;47.48;101042.38;7396736;19;20366;-67
2022/05/17 00:16:19;;;;;;;6.15;2.50;;;;;;;18.64;48.13;101039.97;7394895;19;20359;-67
2022/05/17 00:18:47;;;;;;;5.22;1.95;;;;;;;18.60;48.02;101042.84;7397087;19;20022;-67
2022/05/17 00:21:15;;;;;;;2.38;1.90;;;;;;;18.57;48.81;101038.56;7395166;19;20023;-67
2022/05/17 00:23:44;;;;;;;5.57;2.35;;;;;;;18.49;48.85;101041.59;7394728;19;20380;-67
2022/05/17 00:26:12;;;;;;;6.38;2.08;;;;;;;18.41;48.99;101035.78;7395087;19;20018;-67
2022/05/17 00:28:42;;;;;;;3.97;2.20;;;;;;;18.31;49.49;101038.06;7394885;19;20042;-66
2022/05/17 00:31:13;;;;;;;5.07;2.15;;;;;;;18.20;49.88;101029.78;7394873;19;20020;-67
2022/05/17 00:33:41;;;;;;;3.85;1.95;;;;;;;18.10;50.73;101028.47;7396787;19;20018;-67
2022/05/17 00:36:11;;;;;;;7.60;2.03;;;;;;;18.03;50.99;101034.13;7394277;19;20039;-67
2022/05/17 00:38:39;;;;;;;4.18;2.35;;;;;;;17.95;51.32;101032.75;7396484;19;20025;-66
2022/05/17 00:41:07;;;;;;;6.15;2.70;;;;;;;17.90;52.24;101030.28;7394435;19;20014;-67
2022/05/17 00:46:25;;;;;;;3.47;2.20;;;;;;;17.87;53.17;101031.28;7393544;19;20011;-66
2022/05/17 00:48:53;;;;;;;5.25;2.50;;;;;;;17.85;52.93;101040.28;7396054;19;20018;-68
2022/05/17 00:51:23;;;;;;;4.65;2.42;;;;;;;17.82;53.12;101035.09;7395854;19;20026;-67
2022/05/17 00:53:52;;;;;;;6.40;2.33;;;;;;;17.78;53.63;101038.81;7394143;19;20018;-67
2022/05/17 00:56:25;;;;;;;3.33;2.00;;;;;;;17.70;53.77;101041.84;7395704;19;20019;-67
2022/05/17 00:58:58;;;;;;;6.97;2.30;;;;;;;17.66;54.06;101041.13;7394081;19;20046;-67
2022/05/17 01:01:32;;;;;;;4.70;2.45;;;;;;;17.63;53.81;101041.28;7396062;19;20014;-67
2022/05/17 01:04:08;;;;;;;5.82;2.60;;;;;;;17.61;54.05;101037.81;7393301;19;20031;-67
2022/05/17 01:06:42;;;;;;;5.95;2.58;;;;;;;17.57;54.74;101044.22;7395075;19;20506;-67
2022/05/17 01:09:12;;;;;;;6.28;2.65;;;;;;;17.50;55.43;101043.66;7394956;19;20026;-67
2022/05/17 01:11:41;;;;;;;8.85;2.85;;;;;;;17.40;55.95;101048.50;7395135;19;20081;-67
2022/05/17 01:16:54;;;;;;;5.32;2.70;;;;;;;17.25;57.32;101046.56;7395380;19;20010;-67
2022/05/17 01:19:23;;;;;;;7.75;3.47;;;;;;;17.19;57.62;101044.19;7393333;19;20035;-67
2022/05/17 01:21:53;;;;;;;4.05;2.10;;;;;;;17.14;57.87;101044.38;7394633;19;20451;-66
2022/05/17 01:24:22;;;;;;;4.93;2.30;;;;;;;17.06;57.74;101041.19;7395240;19;20022;-67
2022/05/17 01:26:57;;;;;;;5.97;2.78;;;;;;;17.03;58.42;101057.25;7395068;19;20019;-67
2022/05/17 01:29:25;;;;;;;5.03;2.78;;;;;;;16.96;59.14;101072.56;7394465;19;20023;-66
2022/05/17 01:31:53;;;;;;;5.80;3.08;;;;;;;16.86;60.87;101071.22;7392886;19;20019;-67
2022/05/17 01:34:22;;;;;;;5.75;3.17;;;;;;;16.68;61.80;101067.53;7394445;19;20011;-66
2022/05/17 01:36:50;;;;;;;7.50;2.97;;;;;;;16.48;62.92;101073.66;7393557;19;20031;-66
2022/05/17 01:39:21;;;;;;;7.38;3.65;;;;;;;16.26;64.07;101066.59;7392495;19;20019;-66
2022/05/17 01:41:49;;;;;;;9.43;3.38;;;;;;;16.03;65.35;101072.81;7392233;19;20380;-66
2022/05/17 01:44:17;;;;;;;5.85;3.53;;;;;;;15.83;66.07;101065.66;7392469;19;20026;-66
2022/05/17 01:46:45;;;;;;;4.90;3.42;;;;;;;15.73;66.60;101078.31;7394222;19;20027;-66
2022/05/17 01:49:13;;;;;;;8.95;3.80;;;;;;;15.63;66.96;101083.97;7393719;19;20022;-68
2022/05/17 01:51:41;;;;;;;8.40;4.00;;;;;;;15.62;67.42;101082.25;7392224;19;20022;-67
2022/05/17 01:54:09;;;;;;;7.03;4.05;;;;;;;15.58;68.00;101080.66;7394100;19;20031;-67
2022/05/17 01:56:40;;;;;;;5.10;3.35;;;;;;;15.58;68.03;101082.41;7394149;19;20018;-67
2022/05/17 01:59:08;;;;;;;7.28;3.67;;;;;;;15.55;68.32;101091.31;7393702;19;20022;-67
2022/05/17 02:01:37;;;;;;;7.78;3.92;;;;;;;15.51;69.42;101096.81;7394054;19;20014;-67
2022/05/17 02:04:05;;;;;;;6.15;3.70;;;;;;;15.43;69.56;101097.06;7392000;19;20010;-67
2022/05/17 02:06:34;;;;;;;4.05;3.65;;;;;;;15.31;70.23;101093.94;7391612;19;20035;-66
2022/05/17 02:09:02;;;;;;;7.18;3.58;;;;;;;15.25;70.47;101094.19;7393200;19;20023;-67
2022/05/17 02:11:30;;;;;;;6.28;3.53;;;;;;;15.22;70.88;101104.00;7395017;19;20383;-68
2022/05/17 02:14:01;;;;;;;7.88;4.03;;;;;;;15.17;71.35;101106.78;7395056;19;20015;-68
2022/05/17 02:16:30;;;;;;;7.13;3.88;;;;;;;15.11;71.84;101097.31;7398755;19;20503;-67
2022/05/17 02:18:58;;;;;;;8.80;4.05;;;;;;;15.05;72.50;101104.56;7400625;19;20018;-67
2022/05/17 02:21:26;;;;;;;8.43;4.10;;;;;;;14.98;72.73;101101.28;7398296;19;20032;-67
2022/05/17 02:23:54;;;;;;;6.75;3.90;;;;;;;14.92;73.38;101112.06;7400413;19;20505;-67
2022/05/17 02:26:22;;;;;;;5.97;3.83;;;;;;;14.86;74.04;101109.63;7398168;19;20022;-67
2022/05/17 02:28:50;;;;;;;5.93;4.35;;;;;;;14.81;74.11;101118.56;7399933;19;20010;-67
2022/05/17 02:31:22;;;;;;;5.95;4.15;;;;;;;14.78;74.32;101115.16;7397398;19;20490;-67
2022/05/17 02:33:50;;;;;;;8.00;4.68;;;;;;;14.77;74.50;101108.16;7398068;19;20010;-66
2022/05/17 02:36:18;;;;;;;6.28;3.90;;;;;;;14.78;74.63;101117.81;7397204;19;20022;-66
2022/05/17 02:38:46;;;;;;;6.85;4.32;;;;;;;14.79;74.73;101116.91;7397838;19;20423;-67
2022/05/17 02:41:17;;;;;;;12.63;4.55;;;;;;;14.79;74.96;101123.03;7397918;19;20035;-66
2022/05/17 02:43:46;;;;;;;7.72;4.38;;;;;;;14.80;75.00;101131.84;7400510;19;20014;-66
2022/05/17 02:46:14;;;;;;;5.82;3.95;;;;;;;14.78;75.01;101131.88;7397122;19;20388;-67
2022/05/17 02:48:45;;;;;;;7.38;4.22;;;;;;;14.75;75.36;101131.13;7397461;19;20031;-67
2022/05/17 02:51:16;;;;;;;4.68;3.92;;;;;;;14.73;75.67;101139.06;7400309;19;20019;-67
2022/05/17 02:53:45;;;;;;;6.60;4.63;;;;;;;14.69;75.55;101139.25;7397828;19;20027;-67
2022/05/17 02:56:13;;;;;;;7.95;4.30;;;;;;;14.64;75.89;101139.34;7399503;19;20018;-66
2022/05/17 02:58:41;;;;;;;7.90;4.15;;;;;;;14.59;75.56;101142.13;7397022;19;20035;-66
2022/05/17 03:01:10;;;;;;;5.03;4.13;;;;;;;14.55;75.60;101150.22;7397097;19;20019;-66
2022/05/17 03:03:40;;;;;;;6.50;4.03;;;;;;;14.48;75.61;101153.06;7397433;19;20423;-67
2022/05/17 03:06:13;;;;;;;7.30;4.30;;;;;;;14.43;76.19;101160.25;7397037;19;20022;-67
2022/05/17 03:08:41;;;;;;;4.37;3.53;;;;;;;14.34;76.19;101166.69;7399687;19;20042;-65
2022/05/17 03:11:09;;;;;;;7.57;3.83;;;;;;;14.24;76.18;101162.59;7396988;19;20465;-67
2022/05/17 03:13:38;;;;;;;7.32;4.32;;;;;;;14.19;76.36;101172.41;7396760;19;20018;-68
2022/05/17 03:16:07;;;;;;;8.27;4.03;;;;;;;14.12;76.88;101174.38;7398618;19;20482;-67
2022/05/17 03:18:35;;;;;;;8.18;4.35;;;;;;;14.07;76.92;101178.94;7398887;19;20028;-67
2022/05/17 03:21:03;;;;;;;9.82;4.32;;;;;;;14.01;77.02;101184.38;7396073;19;20419;-67
2022/05/17 03:23:34;;;;;;;9.38;4.60;;;;;;;13.90;77.64;101184.72;7398864;19;20026;-67
2022/05/17 03:26:03;;;;;;;9.13;4.25;;;;;;;13.80;78.16;101193.75;7397919;19;20027;-67
2022/05/17 03:28:31;;;;;;;8.13;4.00;;;;;;;13.68;78.80;101189.69;7397597;19;20023;-66
2022/05/17 03:30:59;;;;;;;11.98;4.65;;;;;;;13.62;79.23;101195.13;7396240;19;20035;-67
2022/05/17 03:33:27;;;;;;;6.38;4.80;;;;;;;13.48;79.82;101193.75;7395971;19;20036;-68
2022/05/17 03:35:55;;;;;;;6.15;4.78;;;;;;;13.45;79.92;101204.38;7398440;19;20062;-67
2022/05/17 03:38:23;;;;;;;8.65;5.00;;;;;;;13.40;80.24;101213.31;7395811;19;20023;-67
2022/05/17 03:40:55;;;;;;;6.20;4.97;;;;;;;13.37;81.58;101219.53;7395579;19;20478;-67
2022/05/17 03:43:23;;;;;;;9.85;5.57;;;;;;;13.28;82.43;101224.97;7397809;19;20023;-67
2022/05/17 03:45:51;;;;;;;13.80;6.60;;;;;;;13.15;82.44;101233.19;7397771;19;20034;-67
2022/05/17 03:48:19;;;;;;;8.75;5.88;;;;;;;13.08;83.82;101230.75;7395909;19;20212;-67
2022/05/17 03:50:48;;;;;;;9.50;6.00;;;;;;;13.00;83.92;101236.19;7396127;19;20011;-67
2022/05/17 03:53:16;;;;;;;10.38;6.63;;;;;;;12.97;84.40;101244.19;7397345;19;20015;-67
2022/05/17 03:55:44;;;;;;;11.80;6.97;;;;;;;12.95;85.01;101245.97;7396996;19;20486;-67
2022/05/17 03:58:15;;;;;;;10.38;6.50;;;;;;;12.93;85.73;101246.03;7397431;19;20022;-67
2022/05/17 04:00:43;;;;;;;10.95;7.13;;;;;;;12.88;85.23;101246.13;7395220;19;20036;-68
2022/05/17 04:03:12;;;;;;;11.65;6.85;;;;;;;12.87;85.80;101244.38;7397115;19;20014;-68
2022/05/17 04:05:40;;;;;;;10.63;6.78;;;;;;;12.87;85.66;101240.91;7395478;19;20015;-68
2022/05/17 04:08:09;;;;;;;12.80;6.82;;;;;;;12.85;85.96;101240.94;7396889;19;20018;-68
2022/05/17 04:10:37;;;;;;;9.85;7.03;;;;;;;12.84;86.06;101241.00;7394689;19;20477;-68
2022/05/17 04:13:07;;;;;;;9.63;6.47;;;;;;;12.81;86.10;101241.03;7396801;19;20023;-69
2022/05/17 04:15:37;;;;;;;12.15;6.90;;;;;;;12.80;86.27;101245.47;7395065;19;20018;-68
2022/05/17 04:18:06;;;;;;;17.38;7.03;;;;;;;12.82;86.49;101250.69;7397163;19;20035;-67
2022/05/17 04:20:34;;;;;;;10.10;7.13;;;;;;;12.81;86.53;101249.78;7394643;19;20428;-67
2022/05/17 04:23:02;;;;;;;9.75;7.32;;;;;;;12.84;86.63;101260.28;7394242;19;20026;-68
2022/05/17 04:25:31;;;;;;;10.00;6.85;;;;;;;12.86;87.25;101253.22;7394757;19;20014;-66
2022/05/17 04:27:59;;;;;;;10.68;6.25;;;;;;;12.83;87.23;101253.28;7397408;19;20015;-66
2022/05/17 04:30:28;;;;;;;10.88;6.47;;;;;;;12.80;87.69;101244.56;7393854;19;20082;-67
2022/05/17 04:32:59;;;;;;;9.50;6.95;;;;;;;12.76;87.24;101235.88;7395122;19;20029;-69
2022/05/17 04:35:33;;;;;;;8.07;6.68;;;;;;;12.78;87.58;101231.44;7395942;19;20011;-67
2022/05/17 04:38:02;;;;;;;11.88;7.38;;;;;;;12.82;87.86;101225.19;7393467;19;20020;-67
2022/05/17 04:40:32;;;;;;;11.80;7.35;;;;;;;12.86;88.11;101221.63;7393901;19;20029;-67
2022/05/17 04:43:00;;;;;;;8.80;6.75;;;;;;;12.86;88.23;101232.16;7394144;19;20018;-67
2022/05/17 04:45:30;;;;;;;14.23;7.90;;;;;;;12.87;88.28;101239.13;7395719;19;20018;-67
2022/05/17 04:48:00;;;;;;;8.85;6.80;;;;;;;12.88;88.78;101234.75;7395044;19;20509;-67
2022/05/17 04:50:29;;;;;;;11.68;7.30;;;;;;;12.87;89.05;101236.50;7394324;19;20018;-67
2022/05/17 04:52:57;;;;;;;10.35;7.45;;;;;;;12.83;89.37;101224.31;7393165;19;20042;-69
2022/05/17 04:55:25;;;;;;;10.20;7.35;;;;;;;12.82;89.43;101225.19;7394861;19;20018;-68
2022/05/17 04:57:53;;;;;;;12.27;8.07;;;;;;;12.80;89.35;101215.59;7393795;19;20022;-68
2022/05/17 05:00:25;;;;;;;10.30;7.10;;;;;;;12.81;89.95;101209.44;7392223;19;20034;-68
2022/05/17 05:02:53;;;;;;;12.02;7.30;;;;;;;12.82;89.52;101219.09;7392604;19;20014;-68
2022/05/17 05:05:25;;;;;;;13.18;7.55;;;;;;;12.81;89.83;101212.06;7394060;19;20035;-68
2022/05/17 05:07:54;;;;;;;12.23;7.05;;;;;;;12.81;90.17;101212.94;7391827;19;20039;-69
2022/05/17 05:10:23;;;;;;;10.38;7.93;;;;;;;12.81;90.10;101215.56;7392071;19;20048;-69
2022/05/17 05:12:52;;;;;;;12.57;8.40;;;;;;;12.85;90.19;101219.00;7391142;19;20371;-68
2022/05/17 05:15:20;;;;;;;13.98;7.68;;;;;;;12.89;90.85;101218.03;7392348;19;20014;-68
2022/05/17 05:17:48;;;;;;;12.55;7.45;;;;;;;12.91;90.26;101212.72;7393629;19;20041;-66
2022/05/17 05:20:18;;;;;;;13.57;8.32;;;;;;;12.94;90.66;101215.28;7391279;19;20022;-67
2022/05/17 05:22:49;;;;;;;12.32;8.23;;;;;;;12.98;90.31;101222.22;7392850;19;20355;-68
2022/05/17 05:25:18;;;;;;;11.55;8.00;;;;;;;13.04;90.51;101233.47;7392831;19;20050;-68
2022/05/17 05:27:46;;;;;;;10.73;8.30;;;;;;;13.09;90.30;101232.47;7392412;19;20380;-68
2022/05/17 05:30:17;;;;;;;11.45;8.15;;;;;;;13.12;90.76;101227.16;7391925;19;20027;-67
2022/05/17 05:32:46;;;;;;;9.43;8.32;;;;;;;13.16;90.11;101229.66;7395274;19;20025;-67
2022/05/17 05:35:16;;;;;;;10.43;8.20;;;;;;;13.19;90.52;101219.06;7393954;19;20034;-69
2022/05/17 05:37:44;;;;;;;10.68;8.18;;;;;;;13.24;90.55;101218.06;7392845;19;20010;-69
2022/05/17 05:40:16;;;;;;;11.50;8.27;;;;;;;13.29;90.06;101218.81;7391786;19;20027;-67
2022/05/17 05:42:44;;;;;;;14.20;9.68;;;;;;;13.29;90.06;101214.41;7393839;19;20072;-67
2022/05/17 05:45:14;;;;;;;13.80;10.45;;;;;;;13.38;90.68;101218.59;7393564;19;20018;-67
2022/05/17 05:47:43;;;;;;;13.93;10.02;;;;;;;13.44;90.50;101231.63;7393722;19;20035;-68
2022/05/17 05:50:12;;;;;;;14.27;10.38;;;;;;;13.47;90.07;101231.56;7394234;19;20021;-67
2022/05/17 05:52:40;;;;;;;14.07;9.80;;;;;;;13.52;89.97;101236.69;7397818;19;20502;-67
2022/05/17 05:55:12;;;;;;;12.55;10.00;;;;;;;13.59;90.22;101250.59;7401784;19;20037;-67
2022/05/17 05:57:43;;;;;;;14.32;8.88;;;;;;;13.63;89.96;101246.97;7402152;19;20037;-68
2022/05/17 06:00:12;;;;;;;18.17;10.05;;;;;;;13.66;90.09;101245.13;7399438;19;20078;-67
2022/05/17 06:02:41;;;;;;;12.68;8.77;;;;;;;13.69;89.68;101250.28;7400178;19;20426;-67
2022/05/17 06:05:10;;;;;;;11.07;8.15;;;;;;;13.76;89.89;101253.66;7399981;19;20023;-67
2022/05/17 06:07:38;;;;;;;12.27;8.68;;;;;;;13.81;89.91;101254.41;7400043;19;20026;-66
2022/05/17 06:10:08;;;;;;;13.77;9.23;;;;;;;13.89;89.46;101261.22;7398566;19;20034;-68
2022/05/17 06:12:36;;;;;;;14.32;7.68;;;;;;;13.91;89.55;101264.69;7399495;19;20374;-68
2022/05/17 06:15:13;;;;;;;10.95;8.07;;;;;;;14.00;89.47;101273.22;7400138;19;20010;-66
2022/05/17 06:17:42;;;;;;;11.23;7.50;;;;;;;14.02;89.72;101276.66;7400672;19;20035;-67
2022/05/17 06:20:14;;;;;;;9.30;7.40;;;;;;;14.05;89.47;101273.06;7398178;19;20019;-68
2022/05/17 06:22:43;;;;;;;10.45;8.82;;;;;;;14.08;89.70;101280.03;7398264;19;20094;-68
2022/05/17 06:25:12;;;;;;;14.32;8.63;;;;;;;14.11;89.08;101278.19;7400493;19;20022;-68
2022/05/17 06:27:41;;;;;;;16.77;8.88;;;;;;;14.18;89.15;101284.16;7399896;19;20007;-68
2022/05/17 06:30:11;;;;;;;13.50;8.57;;;;;;;14.22;89.04;101296.38;7396391;19;20431;-67
2022/05/17 06:32:42;;;;;;;13.20;7.97;;;;;;;14.24;88.78;101299.84;7396682;19;20078;-67
2022/05/17 06:35:12;;;;;;;11.05;7.75;;;;;;;14.29;89.34;101308.47;7397210;19;20035;-68
2022/05/17 06:37:42;;;;;;;10.18;7.15;;;;;;;14.34;89.44;101316.25;7397039;19;20018;-67
2022/05/17 06:40:11;;;;;;;15.43;8.95;;;;;;;14.37;89.14;101315.31;7398047;19;20070;-68
2022/05/17 06:42:39;;;;;;;11.35;8.18;;;;;;;14.42;89.62;101313.38;7396783;19;20022;-68
2022/05/17 06:45:09;;;;;;;12.35;8.45;;;;;;;14.45;89.92;101314.16;7396819;19;20502;-68
2022/05/17 06:47:37;;;;;;;9.48;7.85;;;;;;;14.50;89.83;101319.34;7398239;19;20019;-67
2022/05/17 06:50:10;;;;;;;12.05;8.23;;;;;;;14.54;89.35;101320.13;7396889;19;20040;-67
2022/05/17 06:52:39;;;;;;;9.90;7.85;;;;;;;14.52;88.92;101332.47;7398974;19;20557;-66
2022/05/17 06:55:08;;;;;;;9.90;8.18;;;;;;;14.49;88.53;101323.75;7399204;19;20014;-67
2022/05/17 06:57:36;;;;;;;11.32;8.57;;;;;;;14.52;89.02;101332.47;7399554;19;20022;-67
2022/05/17 07:00:05;;;;;;;10.43;7.90;;;;;;;14.55;88.55;101330.63;7396575;19;20011;-67
2022/05/17 07:02:34;;;;;;;8.43;7.55;;;;;;;14.60;88.25;101339.28;7396664;19;20014;-67
2022/05/17 07:05:03;;;;;;;10.70;9.13;;;;;;;14.64;88.51;101340.06;7398595;19;20033;-68
2022/05/17 07:07:33;;;;;;;11.85;8.45;;;;;;;14.68;88.15;101335.59;7398909;19;20024;-67
2022/05/17 07:15:23;;;;;;;13.43;9.43;;;;;;;14.71;87.90;101357.50;7397797;19;20007;-67
2022/05/17 07:17:51;;;;;;;10.18;8.02;;;;;;;14.72;87.77;101353.06;7397867;19;20047;-66
2022/05/17 07:20:20;;;;;;;10.38;8.60;;;;;;;14.75;87.77;101361.75;7396924;19;20039;-68
2022/05/17 07:22:51;;;;;;;12.93;8.88;;;;;;;14.78;87.55;101359.00;7395709;19;20513;-69
2022/05/17 07:25:19;;;;;;;13.23;9.02;;;;;;;14.80;87.67;101357.22;7396315;19;20022;-68
2022/05/17 07:27:47;;;;;;;13.75;8.93;;;;;;;14.87;87.56;101372.88;7396913;19;20023;-67
2022/05/17 07:30:16;;;;;;;10.45;8.80;;;;;;;14.95;87.11;101370.84;7396526;19;20443;-67
2022/05/17 07:32:45;;;;;;;11.52;8.05;;;;;;;15.03;86.99;101371.50;7395898;19;20014;-68
2022/05/17 07:35:14;;;;;;;12.85;8.70;;;;;;;15.11;86.66;101376.56;7396800;19;20390;-68
2022/05/17 07:37:42;;;;;;;11.30;8.82;;;;;;;15.18;86.71;101374.56;7396207;19;20011;-70
2022/05/17 07:40:15;;;;;;;11.80;8.32;;;;;;;15.24;86.21;101387.59;7394875;19;20023;-67
2022/05/17 07:42:43;;;;;;;13.20;8.35;;;;;;;15.26;86.03;101385.78;7394618;19;20355;-66
2022/05/17 07:45:13;;;;;;;12.25;8.73;;;;;;;15.32;86.10;101390.88;7395083;19;20040;-67
2022/05/17 07:47:42;;;;;;;11.00;7.57;;;;;;;15.40;85.99;101388.84;7397507;19;20098;-67
2022/05/17 07:50:11;;;;;;;10.80;7.97;;;;;;;15.50;85.70;101393.88;7395706;19;20010;-67
2022/05/17 07:52:39;;;;;;;9.60;7.57;;;;;;;15.57;85.66;101396.25;7395717;19;20031;-67
2022/05/17 07:55:10;;;;;;;10.43;8.52;;;;;;;15.66;85.05;101403.03;7397132;19;20014;-66
2022/05/17 07:57:41;;;;;;;9.50;7.93;;;;;;;15.68;84.41;101397.69;7397118;19;20458;-68
2022/05/17 08:00:11;;;;;;;11.80;8.15;;;;;;;15.71;84.28;101398.47;7395362;19;20014;-67
2022/05/17 08:02:39;;;;;;;8.43;7.15;;;;;;;15.76;84.14;101398.31;7395425;19;20031;-68
2022/05/17 08:05:09;;;;;;;11.70;7.68;;;;;;;15.80;83.38;101402.59;7397271;19;20014;-68
2022/05/17 08:07:37;;;;;;;9.43;7.63;;;;;;;15.86;83.51;101402.41;7397546;19;20042;-68
2022/05/17 08:10:06;;;;;;;8.90;7.28;;;;;;;15.92;83.05;101390.75;7394808;19;20031;-68
2022/05/17 08:12:35;;;;;;;9.52;6.80;;;;;;;16.02;82.51;101402.75;7393179;19;20018;-67
2022/05/17 08:15:07;;;;;;;9.93;6.18;;;;;;;16.08;81.83;101407.84;7396741;19;20011;-68
2022/05/17 08:17:35;;;;;;;10.30;6.70;;;;;;;16.17;81.84;101405.78;7398143;19;20015;-67
2022/05/17 08:20:07;;;;;;;8.50;6.50;;;;;;;16.26;80.99;101418.72;7395729;19;20022;-67
2022/05/17 08:22:35;;;;;;;9.68;7.40;;;;;;;16.35;81.04;101414.88;7394530;19;20090;-66
2022/05/17 08:27:44;;;;;;;8.77;7.50;;;;;;;16.52;80.50;101412.50;7395856;19;20042;-67
2022/05/17 08:30:19;;;;;;;10.50;7.85;;;;;;;16.63;80.24;101420.06;7393533;19;20034;-67
2022/05/17 08:35:30;;;;;;;9.23;6.45;;;;;;;16.84;79.63;101428.13;7395378;19;20015;-65
2022/05/17 08:37:58;;;;;;;9.98;7.57;;;;;;;16.91;79.55;101414.63;7393014;19;20010;-67
2022/05/17 08:40:26;;;;;;;9.88;6.82;;;;;;;17.00;79.34;101420.50;7394080;19;20358;-68
2022/05/17 08:43:06;;;;;;;10.82;7.47;;;;;;;17.08;78.90;101416.63;7393742;19;20026;-67
2022/05/17 08:45:43;;;;;;;8.32;7.43;;;;;;;17.20;78.94;101414.41;7394389;19;20022;-68
2022/05/17 08:48:18;;;;;;;11.57;7.13;;;;;;;17.27;78.65;101421.22;7395938;19;20566;-66
2022/05/17 08:50:51;;;;;;;9.55;7.65;;;;;;;17.33;78.25;101430.75;7394359;19;20023;-68
2022/05/17 08:53:22;;;;;;;10.02;7.00;;;;;;;17.37;78.25;101433.19;7394489;19;20011;-68
2022/05/17 08:55:52;;;;;;;8.65;7.57;;;;;;;17.46;78.18;101437.28;7395473;19;20014;-66
2022/05/17 08:58:23;;;;;;;10.75;6.88;;;;;;;17.49;77.82;101428.31;7395966;19;20098;-68
2022/05/17 09:00:59;;;;;;;8.82;6.97;;;;;;;17.54;77.05;101434.31;7393738;19;20023;-68
2022/05/17 09:03:41;;;;;;;7.03;6.15;;;;;;;17.56;76.42;101430.66;7393662;19;20044;-68
2022/05/17 09:06:21;;;;;;;9.30;6.35;;;;;;;17.58;76.40;101435.94;7395457;19;20022;-68
2022/05/17 09:08:56;;;;;;;7.80;6.45;;;;;;;17.59;75.90;101440.28;7395157;19;20477;-68
2022/05/17 09:11:30;;;;;;;7.40;6.55;;;;;;;17.56;75.84;101443.09;7394522;19;20026;-67
2022/05/17 09:14:02;;;;;;;10.68;6.20;;;;;;;17.57;75.72;101436.84;7392280;19;20026;-68
2022/05/17 09:16:35;;;;;;;9.80;5.95;;;;;;;17.58;75.46;101435.94;7394585;19;20022;-67
2022/05/17 09:19:03;;;;;;;7.95;6.25;;;;;;;17.57;75.87;101440.34;7394622;19;20364;-67
2022/05/17 09:21:34;;;;;;;8.25;7.07;;;;;;;17.62;75.55;101437.53;7392252;19;20477;-67
2022/05/17 09:24:06;;;;;;;6.63;5.35;;;;;;;17.67;75.60;101446.16;7392921;19;20035;-68
2022/05/17 09:26:35;;;;;;;9.30;6.13;;;;;;;17.68;75.36;101444.38;7392543;19;20018;-67
2022/05/17 09:29:09;;;;;;;11.82;7.60;;;;;;;17.68;75.25;101442.59;7391977;19;20027;-68
2022/05/17 09:31:40;;;;;;;9.30;6.15;;;;;;;17.73;75.12;101437.06;7392531;19;20019;-67
2022/05/17 09:34:10;;;;;;;12.55;7.28;;;;;;;17.78;75.10;101439.56;7392090;19;20018;-68
2022/05/17 09:36:46;;;;;;;11.60;9.40;;;;;;;17.85;75.14;101441.03;7394017;19;20024;-67
2022/05/17 09:39:14;;;;;;;8.43;6.47;;;;;;;17.92;74.67;101437.22;7391681;19;20015;-67
2022/05/17 09:41:43;;;;;;;7.90;6.32;;;;;;;17.99;74.02;101440.50;7391056;19;20203;-68
2022/05/17 09:44:14;;;;;;;8.98;5.97;;;;;;;18.05;73.88;101441.09;7392673;19;20474;-66
2022/05/17 09:46:50;;;;;;;11.00;7.05;;;;;;;18.12;73.82;101441.72;7394357;19;20023;-67
2022/05/17 09:54:53;;;;;;;8.90;5.97;;;;;;;18.43;73.14;101442.19;7393883;19;20030;-69
2022/05/17 09:57:24;;;;;;;9.57;6.15;;;;;;;18.56;72.59;101444.25;7393586;19;20014;-68
2022/05/17 09:59:56;;;;;;;8.13;5.95;;;;;;;18.68;71.94;101439.31;7392671;19;20366;-68
2022/05/17 10:02:37;;;;;;;6.72;5.82;;;;;;;18.79;71.45;101438.81;7391521;19;20014;-67
2022/05/17 10:05:16;;;;;;;8.02;5.22;;;;;;;18.92;70.58;101440.03;7393309;19;20022;-68
2022/05/17 10:07:51;;;;;;;8.23;5.13;;;;;;;19.01;69.89;101436.06;7393736;19;20026;-69
2022/05/17 10:10:27;;;;;;;5.57;4.68;;;;;;;19.12;69.17;101438.22;7391819;19;20027;-69
2022/05/17 10:12:59;;;;;;;7.75;5.28;;;;;;;19.19;68.52;101439.66;7391339;19;20023;-69
2022/05/17 10:15:29;;;;;;;8.63;5.30;;;;;;;19.29;68.21;101434.78;7391071;19;20372;-69
2022/05/17 10:18:05;;;;;;;6.88;4.55;;;;;;;19.41;67.28;101430.66;7390869;19;20018;-70
2022/05/17 10:20:38;;;;;;;6.68;4.72;;;;;;;19.55;67.23;101430.88;7390268;19;20018;-68
2022/05/17 10:23:10;;;;;;;7.78;5.18;;;;;;;19.69;66.84;101439.03;7389966;19;20022;-68
2022/05/17 10:25:44;;;;;;;7.00;4.72;;;;;;;19.81;66.40;101442.88;7390368;19;20123;-69
2022/05/17 10:28:18;;;;;;;7.00;4.30;;;;;;;19.91;66.02;101435.34;7392824;19;20014;-69
2022/05/17 10:30:51;;;;;;;6.88;5.10;;;;;;;19.99;65.60;101445.59;7389268;19;20018;-71
2022/05/17 10:33:28;;;;;;;6.80;4.32;;;;;;;20.05;65.21;101433.78;7390772;19;20018;-69
2022/05/17 10:36:09;;;;;;;6.53;3.70;;;;;;;20.09;64.67;101430.03;7393375;19;20022;-68
2022/05/17 10:38:43;;;;;;;6.07;3.72;;;;;;;20.14;64.64;101428.88;7397312;19;20014;-69
2022/05/17 10:41:14;;;;;;;4.18;3.67;;;;;;;20.24;64.92;101434.56;7397457;19;20027;-68
2022/05/17 10:43:45;;;;;;;5.97;4.03;;;;;;;20.35;64.63;101437.53;7397032;19;20042;-69
2022/05/17 10:46:21;;;;;;;6.28;4.03;;;;;;;20.54;63.58;101438.38;7399894;19;20419;-69
2022/05/17 10:49:01;;;;;;;5.57;3.25;;;;;;;20.73;62.55;101435.63;7399989;19;20035;-68
2022/05/17 10:51:35;;;;;;;6.75;3.67;;;;;;;20.90;60.29;101440.94;7397433;19;20035;-68
2022/05/17 10:54:10;;;;;;;3.55;3.08;;;;;;;20.97;58.88;101444.09;7396568;19;20507;-68
2022/05/17 10:56:47;;;;;;;4.72;3.40;;;;;;;20.96;59.40;101442.38;7397124;19;20026;-69
2022/05/17 10:59:29;;;;;;;5.45;3.30;;;;;;;20.96;57.86;101442.38;7397022;19;20031;-68
2022/05/17 11:02:10;;;;;;;5.68;3.45;;;;;;;21.01;58.44;101434.97;7397435;19;20018;-69
2022/05/17 11:05:02;;;;;;;4.22;3.13;;;;;;;21.10;56.88;101441.63;7395982;19;20486;-69
2022/05/17 11:07:42;;;;;;;4.60;2.90;;;;;;;21.14;57.24;101444.06;7398082;19;20489;-68
2022/05/17 11:10:41;;;;;;;4.55;3.67;;;;;;;21.19;57.07;101440.25;7396088;19;20022;-70
2022/05/17 11:13:21;;;;;;;6.10;3.53;;;;;;;21.25;57.85;101443.44;7398348;19;20017;-70
2022/05/17 11:15:54;;;;;;;3.47;3.10;;;;;;;21.38;57.54;101437.41;7395811;19;20028;-70
2022/05/17 11:18:28;;;;;;;6.40;5.22;;;;;;;21.49;57.63;101437.66;7397938;19;20029;-68
2022/05/17 11:21:04;;;;;;;5.78;3.78;;;;;;;21.59;57.47;101438.03;7394476;19;20027;-69
2022/05/17 11:23:48;;;;;;;6.38;3.55;;;;;;;21.69;55.96;101441.91;7395268;19;20022;-69
2022/05/17 11:26:41;;;;;;;4.85;3.05;;;;;;;21.82;56.74;101441.19;7394744;19;20018;-69
2022/05/17 11:29:45;;;;;;;4.85;3.53;;;;;;;21.97;56.25;101440.28;7397302;19;20042;-69
2022/05/17 11:32:26;;;;;;;4.17;3.10;;;;;;;22.09;53.82;101438.69;7397048;19;20029;-69
2022/05/17 11:34:57;;;;;;;5.25;3.42;;;;;;;22.07;55.70;101443.28;7394408;19;21162;-68
2022/05/17 11:38:01;;;;;;;4.22;2.95;;;;;;;22.04;55.23;101447.00;7394640;19;20014;-69
2022/05/17 11:40:52;;;;;;;3.88;3.15;;;;;;;22.09;55.38;101444.91;7395607;19;20035;-70
2022/05/17 11:46:04;;;;;;;;;;;;;;;22.22;55.63;101439.69;7397610;19;20015;-69
2022/05/17 11:48:47;;;;;;;4.85;3.28;;;;;;;22.28;55.53;101447.34;7392319;19;19927;-69
2022/05/17 11:51:15;;;;;;;3.60;2.92;;;;;;;22.36;55.77;101446.03;7395482;19;20021;-69
2022/05/17 11:53:48;;;;;;;3.53;2.92;;;;;;;22.42;55.08;101445.69;7394495;19;20031;-69
2022/05/17 11:56:35;;;;;;;4.13;3.10;;;;;;;22.49;54.83;101448.84;7394488;19;20083;-69
2022/05/17 11:59:38;;;;;;;7.55;4.07;;;;;;;22.53;54.63;101448.56;7396674;19;20010;-68
2022/05/17 12:02:11;;;;;;;12.60;9.20;;;;;;;22.58;54.35;101443.81;7396398;19;20014;-67
2022/05/17 12:04:43;;;;;;;7.97;4.32;;;;;;;22.60;54.38;101449.91;7394986;19;20018;-67